NCAR-RAP Real-Time Weather Data

Output produced by METARs form (10 April 2020  07:19 UTC)
found at http://weather.rap.ucar.edu/surface/
 
KEWR 100651Z 25019G24KT 10SM FEW040 FEW075 BKN150 05/00 A2935 RMK AO2 PK WND 25026/0604 SLP937 T00500000